createdAt,value
2018-11-20T00:03:13.400Z,2.70
2018-11-20T00:12:00.430Z,2.50
2018-11-20T00:20:40.171Z,2.40
2018-11-20T00:29:11.003Z,2.50
2018-11-20T00:37:46.716Z,2.40
2018-11-20T00:46:26.076Z,2.50
2018-11-20T00:55:05.440Z,2.40
2018-11-20T01:03:47.797Z,2.30
2018-11-20T01:12:28.582Z,2.40
2018-11-20T01:21:08.129Z,2.50
2018-11-20T01:29:52.178Z,2.30
2018-11-20T01:38:35.434Z,2.60
2018-11-20T01:47:13.384Z,2.30
2018-11-20T01:56:02.961Z,2.40
2018-11-20T02:04:42.532Z,2.20
2018-11-20T02:13:19.818Z,2.30
2018-11-20T02:22:00.572Z,2.20
2018-11-20T02:30:37.646Z,2.40
2018-11-20T02:39:27.571Z,2.00
2018-11-20T02:48:17.434Z,2.20
2018-11-20T02:57:13.259Z,2.10
2018-11-20T03:05:52.906Z,2.20
2018-11-20T03:14:21.479Z,2.10
2018-11-20T03:22:49.863Z,2.10
2018-11-20T03:31:36.439Z,2.20
2018-11-20T03:40:32.282Z,2.10
2018-11-20T03:49:11.737Z,2.20
2018-11-20T03:57:58.571Z,2.20
2018-11-20T04:06:39.343Z,2.30
2018-11-20T04:15:18.810Z,2.20
2018-11-20T04:24:10.486Z,2.40
2018-11-20T04:33:00.252Z,2.20
2018-11-20T04:41:32.716Z,2.30
2018-11-20T04:49:59.364Z,2.50
2018-11-20T04:58:39.122Z,2.50
2018-11-20T05:07:18.852Z,2.40
2018-11-20T05:16:02.609Z,2.40
2018-11-20T05:25:01.852Z,2.50
2018-11-20T05:33:41.256Z,2.60
2018-11-20T05:42:18.423Z,2.70
2018-11-20T05:51:02.367Z,2.70
2018-11-20T05:59:58.282Z,2.70
2018-11-20T06:08:38.161Z,2.70
2018-11-20T06:17:14.537Z,2.90
2018-11-20T06:26:04.484Z,2.80
2018-11-20T06:34:48.180Z,2.80
2018-11-20T06:43:44.180Z,2.80
2018-11-20T06:52:28.516Z,2.80
2018-11-20T07:00:58.291Z,2.80
2018-11-20T07:09:34.561Z,3.00
2018-11-20T07:18:25.306Z,3.00
2018-11-20T07:27:09.170Z,2.90
2018-11-20T07:35:44.171Z,2.90
2018-11-20T07:44:14.819Z,2.80
2018-11-20T07:52:54.250Z,3.00
2018-11-20T08:01:41.276Z,2.70
2018-11-20T08:10:27.872Z,2.70
2018-11-20T08:19:00.029Z,2.80
2018-11-20T08:27:39.457Z,2.50
2018-11-20T08:36:20.224Z,2.70
2018-11-20T08:45:00.987Z,2.40
2018-11-20T08:53:57.153Z,2.40
2018-11-20T09:02:46.990Z,2.50
2018-11-20T09:11:37.768Z,2.70
2018-11-20T09:20:24.684Z,2.70
2018-11-20T09:29:03.960Z,3.00
2018-11-20T09:37:57.152Z,3.50
2018-11-20T09:46:36.760Z,4.00
2018-11-20T09:55:16.983Z,4.20
2018-11-20T10:03:56.540Z,4.40
2018-11-20T10:12:49.601Z,4.40
2018-11-20T10:21:29.324Z,4.70
2018-11-20T10:38:54.661Z,4.80
2018-11-20T10:47:41.852Z,4.90
2018-11-20T10:56:21.284Z,4.90
2018-11-20T11:05:01.409Z,4.90
2018-11-20T11:13:40.964Z,4.90
2018-11-20T11:22:21.719Z,4.80
2018-11-20T11:31:08.494Z,4.90
2018-11-20T11:39:52.030Z,5.20
2018-11-20T11:48:31.840Z,5.10
2018-11-20T11:57:12.617Z,5.00
2018-11-20T12:05:56.147Z,5.10
2018-11-20T12:14:42.739Z,5.10
2018-11-20T12:23:26.657Z,5.30
2018-11-20T12:32:16.273Z,5.20
2018-11-20T12:40:57.066Z,5.30
2018-11-20T12:49:36.480Z,5.40
2018-11-20T12:58:23.602Z,5.50
2018-11-20T13:07:05.164Z,5.70
2018-11-20T13:15:47.102Z,5.60
2018-11-20T13:24:21.197Z,5.50
2018-11-20T13:33:17.831Z,5.50
2018-11-20T13:41:55.116Z,5.70
2018-11-20T13:50:41.990Z,5.50
2018-11-20T13:59:21.564Z,5.40
2018-11-20T14:08:01.291Z,5.60
2018-11-20T14:16:48.530Z,5.80
2018-11-20T14:25:32.314Z,5.50
2018-11-20T14:34:11.915Z,5.50
2018-11-20T14:42:52.679Z,5.60
2018-11-20T14:51:48.846Z,5.50
2018-11-20T15:00:28.305Z,5.50
2018-11-20T15:09:18.266Z,5.40
2018-11-20T15:17:59.032Z,5.40
2018-11-20T15:26:52.136Z,5.40
2018-11-20T15:35:42.088Z,5.40
2018-11-20T15:44:21.530Z,5.30
2018-11-20T15:53:02.383Z,5.30
2018-11-20T16:01:49.232Z,5.10
2018-11-20T16:10:33.216Z,4.90
2018-11-20T16:19:16.770Z,4.50
2018-11-20T16:27:56.388Z,4.20
2018-11-20T16:36:36.033Z,3.80
2018-11-20T16:45:29.144Z,3.50
2018-11-20T16:54:08.665Z,3.30
2018-11-20T17:02:52.673Z,3.30
2018-11-20T17:11:32.416Z,2.80
2018-11-20T17:20:25.589Z,2.90
2018-11-20T17:29:05.539Z,2.60
2018-11-20T17:37:49.387Z,2.50
2018-11-20T17:46:36.132Z,2.30
2018-11-20T17:55:15.610Z,1.90
2018-11-20T18:04:05.747Z,1.80
2018-11-20T18:12:55.570Z,1.70
2018-11-20T18:21:31.161Z,1.60
2018-11-20T18:30:11.930Z,1.70
2018-11-20T18:38:51.829Z,1.80
2018-11-20T18:47:43.922Z,2.00
2018-11-20T18:56:29.047Z,2.10
2018-11-20T19:05:22.157Z,1.60
2018-11-20T19:13:58.978Z,1.40
2018-11-20T19:22:29.003Z,1.00
2018-11-20T19:31:15.825Z,1.00
2018-11-20T19:40:05.463Z,0.70
2018-11-20T19:48:39.955Z,0.60
2018-11-20T19:57:17.782Z,0.80
2018-11-20T20:06:01.592Z,0.40
2018-11-20T20:14:41.067Z,0.40
2018-11-20T20:23:34.108Z,0.40
2018-11-20T20:32:10.351Z,0.00
2018-11-20T20:41:03.741Z,0.00
2018-11-20T20:49:47.704Z,0.30
2018-11-20T20:58:15.239Z,0.50
2018-11-20T21:07:11.493Z,0.40
2018-11-20T21:15:58.452Z,0.20
2018-11-20T21:24:39.217Z,0.10
2018-11-20T21:33:18.639Z,0.10
2018-11-20T21:41:59.401Z,0.10
2018-11-20T21:50:40.169Z,0.20
2018-11-20T21:59:19.607Z,0.10
2018-11-20T22:07:59.492Z,0.00
2018-11-20T22:16:39.182Z,-0.40
2018-11-20T22:25:13.485Z,-0.40
2018-11-20T22:33:54.315Z,-0.60
2018-11-20T22:42:41.334Z,-0.40
2018-11-20T22:51:21.351Z,-0.50
2018-11-20T23:00:02.112Z,-0.80
2018-11-20T23:16:45.319Z,-0.90
2018-11-20T23:25:06.510Z,-0.90
2018-11-20T23:33:27.680Z,-0.90
2018-11-20T23:41:48.857Z,-0.90
2018-11-20T23:50:12.337Z,-0.90
2018-11-20T23:58:33.500Z,-0.80
